Time;durP1;ratioP1;P1;durP2;ratioP2;P2;SDS_P1;SDS_P2;PMS_P1;PMS_P2;Temp;Humidity;BMP_temperature;BMP_pressure;BME280_temperature;BME280_humidity;BME280_pressure;Samples;Min_cycle;Max_cycle;Signal;HPM_P1;HPM_P2
2022/12/15 00:40:59;;;;;;;19.53;9.50;;;;;;;-0.20;100.00;94958.16;5059096;28;21027;-71
2022/12/15 00:43:25;;;;;;;20.63;9.33;;;;;;;-0.28;100.00;94958.88;5058163;28;21093;-71
2022/12/15 00:48:36;;;;;;;23.47;9.13;;;;;;;-0.06;100.00;94955.06;5058278;28;20350;-71
2022/12/15 00:51:03;;;;;;;22.50;8.80;;;;;;;0.05;100.00;94964.28;5058549;28;20207;-71
2022/12/15 01:20:56;;;;;;;25.63;9.07;;;;;;;-0.03;100.00;94978.09;5058769;28;21093;-71
2022/12/15 01:23:24;;;;;;;18.70;8.07;;;;;;;-0.02;100.00;94983.91;5057887;28;20207;-71
2022/12/15 01:25:51;;;;;;;22.30;9.47;;;;;;;-0.02;100.00;94983.91;5056962;28;20215;-71
2022/12/15 01:28:18;;;;;;;22.27;8.27;;;;;;;-0.05;100.00;94992.94;5057532;28;20224;-71
2022/12/15 01:30:44;;;;;;;22.10;8.33;;;;;;;0.00;100.00;94992.38;5058454;28;20235;-71
2022/12/15 01:33:12;;;;;;;21.50;9.47;;;;;;;0.05;100.00;94995.34;5057232;28;20211;-71
2022/12/15 01:35:39;;;;;;;27.20;11.03;;;;;;;0.04;100.00;95004.06;5056432;28;20269;-71
2022/12/15 01:38:05;;;;;;;19.97;8.13;;;;;;;-0.02;100.00;95013.38;5058028;28;20228;-72
2022/12/15 01:40:45;;;;;;;24.37;10.70;;;;;;;0.14;100.00;95022.13;5057216;28;20205;-71
2022/12/15 01:43:13;;;;;;;21.80;9.03;;;;;;;0.04;100.00;95018.78;5057578;28;20212;-73
2022/12/15 01:46:05;;;;;;;25.03;8.97;;;;;;;0.23;100.00;95021.25;5056794;28;20210;-71
2022/12/15 01:48:41;;;;;;;20.97;9.77;;;;;;;0.22;100.00;95025.63;5057324;28;20229;-71
2022/12/15 01:51:19;;;;;;;18.47;7.77;;;;;;;0.18;100.00;95031.28;5057544;28;20212;-72
2022/12/15 01:53:52;;;;;;;19.57;9.07;;;;;;;0.16;100.00;95028.78;5056416;28;20204;-73
2022/12/15 01:56:23;;;;;;;19.37;8.63;;;;;;;0.21;100.00;95028.38;5056727;28;20707;-72
2022/12/15 01:58:53;;;;;;;25.60;9.60;;;;;;;0.17;100.00;95030.44;5056941;28;20204;-72
2022/12/15 02:01:20;;;;;;;26.70;9.30;;;;;;;0.17;100.00;95025.25;5056782;28;20205;-73
2022/12/15 02:03:47;;;;;;;22.73;10.03;;;;;;;0.21;100.00;95028.38;5056454;28;20204;-70
2022/12/15 02:06:15;;;;;;;21.20;9.27;;;;;;;0.20;100.00;95027.53;5057040;28;20205;-72
2022/12/15 02:08:45;;;;;;;26.60;9.87;;;;;;;0.22;100.00;95030.81;5056874;28;20243;-72
2022/12/15 02:11:54;;;;;;;21.70;9.40;;;;;;;0.28;100.00;95038.03;5056896;28;20204;-71
2022/12/15 02:14:37;;;;;;;22.93;8.80;;;;;;;0.02;100.00;95049.19;4974819;28;20207;-71
2022/12/15 02:17:14;;;;;;;26.53;9.90;;;;;;;-0.08;100.00;95040.63;4974941;28;20233;-72
2022/12/15 02:20:15;;;;;;;24.10;9.97;;;;;;;0.05;100.00;95030.75;5030531;28;20214;-71
2022/12/15 02:23:00;;;;;;;21.83;8.33;;;;;;;0.08;100.00;95036.47;5052068;28;20980;-71
2022/12/15 02:25:44;;;;;;;21.30;8.20;;;;;;;0.13;100.00;95043.84;5056134;28;20207;-74
2022/12/15 02:28:21;;;;;;;27.83;10.20;;;;;;;0.14;100.00;95043.69;5056632;28;20234;-73
2022/12/15 02:31:48;;;;;;;22.73;9.13;;;;;;;0.06;100.00;95042.75;5056070;28;20204;-73
2022/12/15 02:33:49;;;;;;;22.37;9.17;;;;;;;0.13;100.00;95039.47;5056514;28;20292;-71
2022/12/15 02:36:24;;;;;;;20.77;8.53;;;;;;;0.14;100.00;95046.28;5056455;28;21146;-71
2022/12/15 02:38:51;;;;;;;19.77;8.63;;;;;;;0.04;100.00;95048.09;5056656;28;20295;-72
2022/12/15 02:41:36;;;;;;;25.23;8.90;;;;;;;0.17;100.00;95061.50;5056698;28;20211;-71
2022/12/15 02:44:09;;;;;;;24.20;8.80;;;;;;;0.16;100.00;95061.66;5056286;28;21054;-73
2022/12/15 02:46:49;;;;;;;22.60;9.27;;;;;;;0.14;100.00;95053.19;5056255;28;20211;-71
2022/12/15 02:49:26;;;;;;;23.97;10.07;;;;;;;0.14;100.00;95051.44;5056046;28;20698;-72
2022/12/15 02:52:04;;;;;;;24.73;9.73;;;;;;;0.03;100.00;95056.00;5056853;28;20230;-72
2022/12/15 02:54:52;;;;;;;23.23;9.17;;;;;;;-0.16;100.00;95063.84;5055447;28;20204;-73
2022/12/15 02:57:24;;;;;;;29.60;10.17;;;;;;;-0.17;100.00;95066.56;5056515;28;20250;-71
2022/12/15 02:59:57;;;;;;;26.93;10.30;;;;;;;-0.10;100.00;95065.03;5056663;28;20219;-72
2022/12/15 03:02:30;;;;;;;30.03;11.07;;;;;;;-0.10;100.00;95060.69;5056378;28;20214;-73
2022/12/15 03:04:57;;;;;;;32.17;11.47;;;;;;;-0.30;100.00;95072.03;5055604;28;20218;-73
2022/12/15 03:07:26;;;;;;;30.10;10.83;;;;;;;-0.21;100.00;95070.41;5056270;28;20243;-72
2022/12/15 03:09:53;;;;;;;20.10;8.93;;;;;;;-0.27;100.00;95076.13;5056461;28;20692;-71
2022/12/15 03:12:20;;;;;;;28.53;9.70;;;;;;;-0.27;100.00;95076.94;5056470;28;20215;-71
2022/12/15 03:14:46;;;;;;;30.33;11.10;;;;;;;-0.33;100.00;95084.44;5054855;28;20196;-72
2022/12/15 03:17:13;;;;;;;31.47;11.43;;;;;;;-0.28;100.00;95087.44;5056040;28;20228;-72
2022/12/15 03:19:41;;;;;;;25.80;9.83;;;;;;;-0.29;100.00;95098.75;5056412;28;20215;-73
2022/12/15 03:22:07;;;;;;;27.43;10.53;;;;;;;-0.33;100.00;95100.78;5056395;28;20215;-72
2022/12/15 03:24:34;;;;;;;26.57;10.00;;;;;;;-0.47;100.00;95080.53;5054954;28;21314;-71
2022/12/15 03:27:01;;;;;;;28.83;10.37;;;;;;;-0.39;100.00;95091.00;5056386;28;20895;-72
2022/12/15 03:29:27;;;;;;;33.83;12.07;;;;;;;-0.44;100.00;95100.13;5056543;28;20223;-71
2022/12/15 03:31:54;;;;;;;29.07;11.20;;;;;;;-0.44;100.00;95093.19;5056103;28;20215;-72
2022/12/15 03:34:20;;;;;;;28.53;11.03;;;;;;;-0.37;100.00;95090.84;5057371;28;20204;-72
2022/12/15 03:36:48;;;;;;;41.13;13.63;;;;;;;-0.55;100.00;95087.34;5059971;28;20611;-72
2022/12/15 03:39:15;;;;;;;33.30;11.90;;;;;;;-0.63;100.00;95089.00;5057235;28;20207;-71
2022/12/15 03:41:41;;;;;;;33.80;12.60;;;;;;;-0.61;100.00;95087.91;5060138;28;20200;-72
2022/12/15 03:44:08;;;;;;;32.93;12.93;;;;;;;-0.69;100.00;95103.28;5059316;28;20688;-72
2022/12/15 03:46:34;;;;;;;30.57;10.80;;;;;;;-0.58;100.00;95097.97;5059091;28;20209;-73
2022/12/15 03:49:01;;;;;;;32.60;11.07;;;;;;;-0.62;100.00;95101.78;5060188;28;20208;-71
2022/12/15 03:51:27;;;;;;;40.63;12.40;;;;;;;-0.82;100.00;95094.19;5060194;28;20211;-71
2022/12/15 03:53:57;;;;;;;39.50;12.03;;;;;;;-0.60;100.00;95094.69;5058559;28;20208;-71
2022/12/15 03:56:24;;;;;;;26.17;9.70;;;;;;;-0.66;100.00;95094.44;5058967;28;20224;-72
2022/12/15 03:58:51;;;;;;;30.80;11.87;;;;;;;-0.64;100.00;95103.69;5060064;28;20204;-72
2022/12/15 04:01:26;;;;;;;31.97;11.50;;;;;;;-0.49;100.00;95107.50;5059642;28;20274;-71
2022/12/15 04:03:52;;;;;;;29.80;11.33;;;;;;;-0.63;100.00;95109.69;5058540;28;20215;-72
2022/12/15 04:06:19;;;;;;;30.77;12.33;;;;;;;-0.67;100.00;95108.34;5059694;28;20207;-71
2022/12/15 04:08:45;;;;;;;25.30;10.50;;;;;;;-0.64;100.00;95101.09;5059258;28;20698;-72
2022/12/15 04:11:13;;;;;;;29.07;11.00;;;;;;;-0.57;100.00;95100.41;5059277;28;20201;-73
2022/12/15 04:13:40;;;;;;;31.03;12.33;;;;;;;-0.68;100.00;95107.50;5058628;28;20212;-72
2022/12/15 04:16:07;;;;;;;33.07;10.93;;;;;;;-0.72;100.00;95103.56;5059370;28;20318;-72
2022/12/15 04:18:34;;;;;;;32.60;12.30;;;;;;;-0.77;100.00;95100.56;5058953;28;20231;-72
2022/12/15 04:20:59;;;;;;;32.97;10.70;;;;;;;-0.92;100.00;95104.50;5059486;28;20256;-73
2022/12/15 04:23:26;;;;;;;29.57;10.40;;;;;;;-0.90;100.00;95112.16;5058951;28;20793;-73
2022/12/15 05:31:57;;;;;;;27.77;10.97;;;;;;;-0.99;100.00;95170.66;5058020;28;20269;-73
2022/12/15 05:34:27;;;;;;;42.00;13.80;;;;;;;-0.85;100.00;95167.66;5057599;28;20206;-72
2022/12/15 05:36:55;;;;;;;33.97;12.63;;;;;;;-0.84;100.00;95168.47;5057342;28;20226;-73
2022/12/15 05:39:22;;;;;;;39.87;14.40;;;;;;;-0.94;100.00;95155.56;5057980;28;20215;-73
2022/12/15 05:41:49;;;;;;;38.33;13.27;;;;;;;-1.03;100.00;95158.94;5057756;28;20207;-72
2022/12/15 05:44:16;;;;;;;36.83;12.90;;;;;;;-1.11;100.00;95163.97;5055982;28;20201;-74
2022/12/15 05:46:42;;;;;;;37.83;12.53;;;;;;;-0.99;100.00;95159.50;5057390;28;20282;-73
2022/12/15 05:49:12;;;;;;;38.30;11.80;;;;;;;-1.00;100.00;95169.00;5055394;28;20211;-74
2022/12/15 05:51:41;;;;;;;35.00;12.20;;;;;;;-1.03;100.00;95171.88;5056584;28;20211;-73
2022/12/15 05:54:08;;;;;;;36.03;13.03;;;;;;;-1.04;100.00;95175.41;5056662;28;20222;-73
2022/12/15 05:56:35;;;;;;;33.63;11.80;;;;;;;-1.00;100.00;95187.09;5056789;28;20227;-72
2022/12/15 05:59:03;;;;;;;35.50;14.00;;;;;;;-1.08;100.00;95202.47;5056498;28;20215;-71
2022/12/15 06:01:30;;;;;;;35.80;13.53;;;;;;;-1.23;100.00;95200.38;5056856;28;20709;-72
2022/12/15 06:03:57;;;;;;;40.80;13.53;;;;;;;-1.11;100.00;95202.75;5056056;28;20215;-73
2022/12/15 06:06:24;;;;;;;30.53;10.80;;;;;;;-1.12;100.00;95195.94;5056708;28;20200;-73
2022/12/15 06:08:52;;;;;;;32.67;12.50;;;;;;;-1.08;100.00;95183.56;5056783;28;20207;-74
2022/12/15 06:11:21;;;;;;;33.33;11.83;;;;;;;-1.00;100.00;95194.06;5056799;28;20204;-74
2022/12/15 06:13:47;;;;;;;33.90;12.47;;;;;;;-1.20;100.00;95197.53;5056674;28;20312;-74
2022/12/15 06:16:16;;;;;;;36.53;11.80;;;;;;;-1.17;100.00;95203.25;5056793;28;20234;-73
2022/12/15 06:18:44;;;;;;;25.60;11.27;;;;;;;-1.13;100.00;95214.97;5056560;28;20224;-72
2022/12/15 06:21:12;;;;;;;37.53;13.50;;;;;;;-1.20;100.00;95220.78;5056922;28;20578;-73
2022/12/15 06:23:40;;;;;;;28.77;10.63;;;;;;;-1.42;100.00;95217.59;5056128;28;20207;-73
2022/12/15 06:26:13;;;;;;;33.53;12.33;;;;;;;-1.29;100.00;95220.75;5056753;28;20206;-73
2022/12/15 06:28:40;;;;;;;29.33;12.90;;;;;;;-1.23;100.00;95218.47;5056486;28;20228;-73
2022/12/15 06:31:09;;;;;;;30.87;10.90;;;;;;;-1.18;100.00;95217.13;5055762;28;20670;-73
2022/12/15 06:33:37;;;;;;;26.03;10.57;;;;;;;-1.27;100.00;95230.03;5056440;28;20683;-74
2022/12/15 06:36:05;;;;;;;37.03;12.60;;;;;;;-1.16;100.00;95222.16;5057024;28;20204;-73
2022/12/15 06:38:32;;;;;;;40.77;14.50;;;;;;;-1.10;100.00;95221.63;5059382;28;20230;-70
2022/12/15 06:41:00;;;;;;;27.23;12.00;;;;;;;-1.10;100.00;95219.84;5067425;28;20199;-71
2022/12/15 06:43:29;;;;;;;37.13;12.77;;;;;;;-1.13;100.00;95216.75;5051828;28;20200;-71
2022/12/15 06:45:56;;;;;;;31.17;11.43;;;;;;;-1.13;100.00;95233.06;5070180;28;20229;-71
2022/12/15 06:48:24;;;;;;;34.63;12.70;;;;;;;-1.17;100.00;95236.84;5056909;28;20227;-71
2022/12/15 06:50:51;;;;;;;33.27;11.93;;;;;;;-1.32;100.00;95224.44;5056718;28;20208;-70
2022/12/15 06:53:19;;;;;;;38.93;13.93;;;;;;;-1.39;100.00;95214.75;5056274;28;20220;-70
2022/12/15 06:55:46;;;;;;;33.63;12.27;;;;;;;-1.25;100.00;95204.84;5055494;28;20208;-70
2022/12/15 06:58:14;;;;;;;33.40;13.00;;;;;;;-1.23;100.00;95207.31;5056436;28;20236;-70
2022/12/15 07:00:43;;;;;;;34.33;12.13;;;;;;;-1.23;100.00;95207.31;5056642;28;20211;-70
2022/12/15 07:03:14;;;;;;;30.43;11.37;;;;;;;-1.25;100.00;95210.03;5056465;28;20210;-70
2022/12/15 07:05:40;;;;;;;33.37;12.17;;;;;;;-1.20;100.00;95218.19;5055650;28;20207;-70
2022/12/15 07:08:07;;;;;;;33.17;12.83;;;;;;;-1.22;100.00;95227.88;5058091;28;20226;-70
2022/12/15 07:10:33;;;;;;;38.37;12.87;;;;;;;-1.24;100.00;95223.78;5059667;28;20207;-70
2022/12/15 07:13:00;;;;;;;35.10;13.07;;;;;;;-1.16;100.00;95223.00;5060437;28;20383;-70
2022/12/15 07:15:26;;;;;;;40.13;13.47;;;;;;;-1.00;100.00;95230.25;5059221;28;20970;-70
2022/12/15 07:17:55;;;;;;;32.93;13.23;;;;;;;-0.93;100.00;95227.00;5059404;28;20239;-70
2022/12/15 07:20:22;;;;;;;35.67;13.57;;;;;;;-0.98;100.00;95234.31;5060347;28;20205;-71
2022/12/15 07:22:50;;;;;;;35.57;12.67;;;;;;;-1.03;100.00;95246.81;5060264;28;20203;-71
2022/12/15 07:25:17;;;;;;;41.30;14.53;;;;;;;-1.04;100.00;95250.34;5059464;28;20208;-71
2022/12/15 07:27:44;;;;;;;35.90;14.03;;;;;;;-1.03;100.00;95252.00;5060225;28;20216;-70
2022/12/15 07:30:12;;;;;;;44.67;14.67;;;;;;;-0.90;100.00;95242.22;5060970;28;20206;-70
2022/12/15 07:32:38;;;;;;;37.67;13.77;;;;;;;-1.01;100.00;95255.25;5059882;28;20732;-71
2022/12/15 07:35:07;;;;;;;41.43;13.97;;;;;;;-0.94;100.00;95245.19;5058931;28;20218;-72
2022/12/15 07:37:35;;;;;;;42.17;14.60;;;;;;;-0.90;100.00;95242.22;5060080;28;20231;-72
2022/12/15 07:40:02;;;;;;;35.70;13.13;;;;;;;-0.95;100.00;95243.59;5059640;28;20215;-72
2022/12/15 07:42:29;;;;;;;39.27;13.47;;;;;;;-0.78;100.00;95245.53;5059762;28;20699;-72
2022/12/15 07:44:56;;;;;;;35.63;13.37;;;;;;;-0.77;100.00;95250.56;5059427;28;20200;-72
2022/12/15 07:47:23;;;;;;;36.57;13.03;;;;;;;-0.75;100.00;95246.09;5059526;28;20224;-72
2022/12/15 07:49:50;;;;;;;36.80;13.70;;;;;;;-0.66;100.00;95247.03;5059491;28;20198;-72
2022/12/15 07:52:18;;;;;;;37.57;14.33;;;;;;;-0.56;100.00;95253.84;5059752;28;20208;-72
2022/12/15 07:54:44;;;;;;;40.27;15.07;;;;;;;-0.62;100.00;95249.22;5058695;28;20553;-72
2022/12/15 07:57:11;;;;;;;38.20;13.37;;;;;;;-0.50;100.00;95250.72;5058825;28;20227;-71
2022/12/15 07:59:37;;;;;;;48.27;13.87;;;;;;;-0.39;100.00;95251.41;5059845;28;21299;-72
2022/12/15 08:02:05;;;;;;;37.93;13.50;;;;;;;-0.45;100.00;95238.22;5059572;28;20590;-71
2022/12/15 08:04:31;;;;;;;51.07;14.87;;;;;;;-0.41;100.00;95248.16;5058410;28;20677;-71
2022/12/15 08:06:58;;;;;;;44.30;15.03;;;;;;;-0.36;100.00;95245.97;5058930;28;20989;-72
2022/12/15 08:09:26;;;;;;;41.40;13.47;;;;;;;-0.19;100.00;95260.84;5059541;28;20215;-72
2022/12/15 08:11:53;;;;;;;47.57;13.20;;;;;;;-0.24;100.00;95267.34;5059299;28;20208;-72
2022/12/15 08:14:19;;;;;;;39.23;14.67;;;;;;;-0.30;100.00;95280.84;5058562;28;20214;-72
2022/12/15 08:16:46;;;;;;;32.67;13.10;;;;;;;-0.28;100.00;95276.34;5059159;28;20232;-71
2022/12/15 08:19:15;;;;;;;38.20;12.57;;;;;;;-0.15;100.00;95275.13;5057086;28;20676;-72
2022/12/15 08:21:44;;;;;;;34.03;12.60;;;;;;;-0.08;100.00;95278.00;5059154;28;20197;-72
2022/12/15 08:24:11;;;;;;;36.80;12.83;;;;;;;-0.08;100.00;95286.56;5058726;28;20200;-72
2022/12/15 08:26:40;;;;;;;32.40;12.17;;;;;;;0.02;100.00;95298.56;5058751;28;20676;-72
2022/12/15 08:29:09;;;;;;;33.80;12.53;;;;;;;0.12;100.00;95299.38;5058436;28;20204;-72
2022/12/15 08:31:35;;;;;;;43.30;15.10;;;;;;;0.08;100.00;95294.63;5059257;28;20211;-72
2022/12/15 08:34:03;;;;;;;48.00;16.10;;;;;;;0.09;100.00;95289.28;5058318;28;20201;-72
2022/12/15 08:36:30;;;;;;;36.80;11.97;;;;;;;-0.01;100.00;95293.66;5058750;28;20200;-72
2022/12/15 08:38:57;;;;;;;42.17;15.07;;;;;;;0.16;100.00;95292.97;5060581;28;20205;-71
2022/12/15 08:41:27;;;;;;;35.43;13.80;;;;;;;0.08;100.00;95285.06;5070898;28;20204;-71
2022/12/15 08:43:56;;;;;;;42.03;15.20;;;;;;;0.22;100.00;95291.59;5069906;28;20208;-71
2022/12/15 08:46:24;;;;;;;44.03;14.50;;;;;;;0.09;100.00;95296.25;5068441;28;20207;-71
2022/12/15 08:48:52;;;;;;;31.93;12.87;;;;;;;0.15;100.00;95298.28;5070739;28;20275;-71
2022/12/15 08:51:19;;;;;;;38.97;12.93;;;;;;;0.24;100.00;95298.28;5070548;28;20207;-71
2022/12/15 08:53:46;;;;;;;45.40;14.77;;;;;;;0.17;100.00;95294.59;5069943;28;20668;-71
2022/12/15 08:56:15;;;;;;;39.70;13.60;;;;;;;0.39;100.00;95294.28;5066639;28;20302;-71
2022/12/15 08:58:42;;;;;;;41.47;13.63;;;;;;;0.30;100.00;95300.31;5071141;28;20237;-71
2022/12/15 09:01:12;;;;;;;44.07;14.53;;;;;;;0.34;100.00;95306.03;5066998;28;20204;-71
2022/12/15 09:03:39;;;;;;;37.30;12.97;;;;;;;0.38;100.00;95300.47;5070645;28;20215;-71
2022/12/15 09:06:08;;;;;;;41.50;13.43;;;;;;;0.48;100.00;95284.88;5067545;28;20204;-71
2022/12/15 09:08:35;;;;;;;45.80;13.83;;;;;;;0.40;100.00;95274.41;5058653;28;20248;-70
2022/12/15 09:11:04;;;;;;;33.30;12.37;;;;;;;0.54;100.00;95276.56;5067221;28;20211;-71
2022/12/15 09:13:31;;;;;;;40.80;13.00;;;;;;;0.36;100.00;95275.63;5068743;28;20219;-71
2022/12/15 09:15:58;;;;;;;31.10;10.90;;;;;;;0.40;100.00;95272.63;5068219;28;20204;-71
2022/12/15 09:18:27;;;;;;;39.03;12.67;;;;;;;0.50;100.00;95281.19;5065377;28;20348;-71
2022/12/15 09:20:54;;;;;;;41.63;14.87;;;;;;;0.43;100.00;95289.66;5058529;28;20215;-70
2022/12/15 09:23:20;;;;;;;39.20;13.93;;;;;;;0.46;100.00;95285.03;5058177;28;20208;-71
2022/12/15 09:25:47;;;;;;;41.83;13.37;;;;;;;0.63;100.00;95281.69;5056923;28;20216;-71
2022/12/15 09:28:14;;;;;;;36.90;13.33;;;;;;;0.40;100.00;95287.34;5056398;28;20220;-70
2022/12/15 09:30:41;;;;;;;35.63;13.13;;;;;;;0.54;100.00;95282.53;5056525;28;20205;-70
2022/12/15 09:33:07;;;;;;;34.87;13.00;;;;;;;0.32;100.00;95274.25;5056787;28;20201;-71
2022/12/15 09:35:35;;;;;;;34.73;12.37;;;;;;;0.46;100.00;95271.22;5056778;28;20207;-71
2022/12/15 09:38:01;;;;;;;35.47;12.73;;;;;;;0.59;100.00;95268.19;5057879;28;20262;-71
2022/12/15 09:40:33;;;;;;;35.57;13.83;;;;;;;0.48;100.00;95284.88;5056747;28;20204;-71
2022/12/15 09:43:00;;;;;;;38.97;12.80;;;;;;;0.43;100.00;95294.84;5057612;28;20244;-70
2022/12/15 09:45:34;;;;;;;38.30;12.77;;;;;;;0.50;100.00;95296.75;5056697;28;20204;-70
2022/12/15 09:48:05;;;;;;;43.47;14.73;;;;;;;0.72;100.00;95286.03;5057223;28;20224;-71
2022/12/15 09:50:38;;;;;;;36.03;14.07;;;;;;;0.76;100.00;95282.19;5057715;28;20216;-70
2022/12/15 09:53:09;;;;;;;38.27;14.23;;;;;;;0.85;100.00;95281.34;5057458;28;20212;-71
2022/12/15 09:55:36;;;;;;;36.13;13.27;;;;;;;0.71;100.00;95285.25;5055486;28;20950;-72
2022/12/15 09:58:12;;;;;;;42.43;13.80;;;;;;;0.86;100.00;95288.19;5057431;28;20681;-72
2022/12/15 10:00:44;;;;;;;42.07;14.67;;;;;;;0.75;100.00;95275.38;5057552;28;20219;-72
2022/12/15 10:03:28;;;;;;;44.77;15.63;;;;;;;0.48;100.00;95277.91;5056924;28;20656;-72
2022/12/15 10:06:05;;;;;;;39.57;13.43;;;;;;;0.60;100.00;95259.47;5056336;28;20200;-72
2022/12/15 10:08:35;;;;;;;42.67;13.20;;;;;;;0.59;100.00;95249.25;5056833;28;20242;-72
2022/12/15 10:11:05;;;;;;;44.93;14.67;;;;;;;0.48;100.00;95248.59;5056804;28;20234;-72
2022/12/15 10:13:42;;;;;;;44.67;14.27;;;;;;;0.56;100.00;95249.53;5056232;28;20223;-72
2022/12/15 10:16:18;;;;;;;31.83;11.87;;;;;;;0.33;100.00;95253.41;5057053;28;20208;-72
2022/12/15 10:18:54;;;;;;;40.80;14.60;;;;;;;-0.03;100.00;95252.50;5056275;28;20235;-72
2022/12/15 10:21:26;;;;;;;33.53;11.00;;;;;;;0.30;100.00;95247.69;5056866;28;20200;-72
2022/12/15 10:23:54;;;;;;;37.03;13.97;;;;;;;0.17;100.00;95242.00;5056367;28;20204;-72
2022/12/15 10:26:23;;;;;;;33.97;12.33;;;;;;;0.23;100.00;95252.63;5058077;28;20579;-72
2022/12/15 10:29:06;;;;;;;41.87;13.27;;;;;;;0.21;100.00;95233.78;5056951;28;20207;-72
2022/12/15 10:31:41;;;;;;;31.90;13.60;;;;;;;0.40;100.00;95238.94;5056854;28;20208;-72
2022/12/15 10:34:10;;;;;;;36.77;13.83;;;;;;;0.34;100.00;95242.06;5055979;28;20204;-72
2022/12/15 10:36:50;;;;;;;29.50;10.83;;;;;;;0.38;100.00;95230.50;5056335;28;20677;-72
2022/12/15 10:39:16;;;;;;;43.57;16.17;;;;;;;0.25;100.00;95219.59;5056981;28;20222;-72
2022/12/15 10:41:43;;;;;;;32.57;11.07;;;;;;;-0.08;100.00;95231.41;5056436;28;20205;-72
2022/12/15 10:44:24;;;;;;;31.87;12.37;;;;;;;0.03;100.00;95225.09;5055564;28;20219;-72
2022/12/15 10:46:55;;;;;;;39.00;13.47;;;;;;;0.23;100.00;95215.53;5056398;28;20227;-72
2022/12/15 10:49:23;;;;;;;39.63;14.60;;;;;;;0.21;100.00;95220.84;5056197;28;20418;-72
2022/12/15 10:51:56;;;;;;;41.23;15.07;;;;;;;0.34;100.00;95213.56;5056334;28;20200;-72
2022/12/15 10:54:26;;;;;;;22.47;10.13;;;;;;;0.47;100.00;95198.56;5055356;28;20200;-72
2022/12/15 10:56:55;;;;;;;41.13;14.03;;;;;;;0.57;100.00;95204.50;5056730;28;20228;-72
2022/12/15 10:59:24;;;;;;;28.97;11.53;;;;;;;0.56;100.00;95200.31;5056060;28;20224;-72
2022/12/15 11:01:51;;;;;;;40.23;13.57;;;;;;;0.46;100.00;95206.44;5056224;28;20199;-72
2022/12/15 11:04:29;;;;;;;47.17;16.30;;;;;;;0.71;100.00;95219.59;5056188;28;20212;-72
2022/12/15 11:07:01;;;;;;;42.47;15.20;;;;;;;0.17;100.00;95229.84;5056071;28;21024;-72
2022/12/15 11:09:33;;;;;;;32.10;12.03;;;;;;;0.36;100.00;95232.41;5055740;28;20692;-72
2022/12/15 11:14:46;;;;;;;42.13;14.00;;;;;;;0.12;100.00;95224.28;5055726;28;20453;-72
2022/12/15 11:17:16;;;;;;;31.33;11.27;;;;;;;-0.05;100.00;95231.09;5056065;28;20228;-72
2022/12/15 11:19:50;;;;;;;42.40;14.07;;;;;;;0.15;100.00;95229.19;5056672;28;20207;-72
2022/12/15 11:22:24;;;;;;;46.23;14.73;;;;;;;0.28;100.00;95227.13;5056257;28;20415;-72
2022/12/15 11:24:54;;;;;;;36.27;12.27;;;;;;;0.29;100.00;95226.13;5055683;28;20217;-72
2022/12/15 11:27:26;;;;;;;38.63;13.27;;;;;;;0.38;100.00;95222.72;5056648;28;20577;-72
2022/12/15 11:30:00;;;;;;;40.70;15.10;;;;;;;0.48;100.00;95220.91;5056633;28;20201;-72
2022/12/15 11:32:32;;;;;;;32.87;11.27;;;;;;;0.18;100.00;95223.72;5055774;28;20209;-72
2022/12/15 11:34:59;;;;;;;44.80;14.87;;;;;;;0.30;100.00;95226.97;5055725;28;20205;-72
2022/12/15 11:37:43;;;;;;;40.00;13.53;;;;;;;0.61;100.00;95235.19;5055796;28;20247;-72
2022/12/15 11:40:27;;;;;;;30.53;12.17;;;;;;;0.25;100.00;95227.38;5056099;28;20668;-72
2022/12/15 11:43:06;;;;;;;45.37;14.97;;;;;;;0.56;100.00;95235.75;5056148;28;20208;-72
2022/12/15 11:45:40;;;;;;;40.37;14.50;;;;;;;0.55;100.00;95237.53;5055479;28;20215;-72
2022/12/15 11:48:12;;;;;;;41.30;15.33;;;;;;;0.52;100.00;95232.63;5055465;28;20983;-72
2022/12/15 11:50:48;;;;;;;42.43;14.90;;;;;;;0.66;100.00;95234.75;5056026;28;20196;-71
2022/12/15 11:53:33;;;;;;;46.03;15.40;;;;;;;0.65;100.00;95221.00;5055857;28;21032;-71
2022/12/15 11:56:09;;;;;;;41.37;14.37;;;;;;;0.38;100.00;95214.97;5058311;28;20214;-71
2022/12/15 11:59:01;;;;;;;39.70;13.07;;;;;;;0.51;100.00;95199.06;5059357;28;20227;-71
2022/12/15 12:01:51;;;;;;;43.90;15.30;;;;;;;0.29;100.00;95179.50;5059813;28;20214;-69
2022/12/15 12:04:23;;;;;;;42.83;12.87;;;;;;;0.24;100.00;95179.13;5058747;28;20214;-69
2022/12/15 12:07:06;;;;;;;39.57;14.57;;;;;;;0.25;100.00;95160.03;5058904;28;21004;-71
2022/12/15 12:09:36;;;;;;;37.43;14.23;;;;;;;0.27;100.00;95145.19;5059621;28;20200;-71
2022/12/15 12:12:15;;;;;;;42.67;13.43;;;;;;;0.14;100.00;95141.25;5059625;28;20211;-71
2022/12/15 12:14:51;;;;;;;32.40;11.87;;;;;;;0.21;100.00;95140.56;5058479;28;20208;-70
2022/12/15 12:17:29;;;;;;;35.83;13.17;;;;;;;0.13;100.00;95127.50;5057522;28;20231;-70
2022/12/15 12:19:59;;;;;;;28.97;9.67;;;;;;;0.26;100.00;95137.56;5058231;28;21172;-71
2022/12/15 12:22:30;;;;;;;42.90;14.13;;;;;;;-0.06;100.00;95136.28;5058980;28;20581;-70
2022/12/15 12:25:00;;;;;;;43.50;13.93;;;;;;;0.24;100.00;95139.44;5058861;28;20206;-70
2022/12/15 12:27:36;;;;;;;30.67;11.77;;;;;;;-0.20;100.00;95134.97;5058223;28;20225;-71
2022/12/15 12:30:06;;;;;;;79.47;23.95;;;;;;;1.14;100.00;95131.63;5057873;28;20893;-70
2022/12/15 12:32:42;;;;;;;59.13;17.43;;;;;;;0.71;100.00;95137.47;5059097;28;20555;-71
2022/12/15 12:35:16;;;;;;;45.27;14.47;;;;;;;0.60;100.00;95136.84;5058671;28;20204;-70
2022/12/15 12:37:50;;;;;;;44.60;14.17;;;;;;;-0.06;100.00;95136.28;5058770;28;20235;-71
2022/12/15 12:40:22;;;;;;;38.00;14.03;;;;;;;-0.13;100.00;95132.63;5058543;28;21042;-71
2022/12/15 12:42:54;;;;;;;37.57;11.53;;;;;;;-0.16;100.00;95131.13;5059075;28;20212;-71
2022/12/15 12:45:25;;;;;;;34.07;13.97;;;;;;;-0.06;100.00;95120.75;5057737;28;20208;-70
2022/12/15 12:47:56;;;;;;;35.57;12.50;;;;;;;-0.09;100.00;95123.63;5058103;28;20232;-70
2022/12/15 12:50:26;;;;;;;39.77;15.83;;;;;;;-0.07;100.00;95132.06;5058817;28;20209;-71
2022/12/15 12:52:55;;;;;;;43.93;12.53;;;;;;;0.10;100.00;95126.97;5059174;28;20243;-71
2022/12/15 12:55:38;;;;;;;30.67;11.43;;;;;;;-0.20;100.00;95108.28;5057751;28;20201;-71
2022/12/15 12:58:30;;;;;;;30.90;12.00;;;;;;;-0.09;100.00;95105.50;5058689;28;20234;-71
2022/12/15 13:01:18;;;;;;;26.07;11.73;;;;;;;-0.01;100.00;95109.03;5057847;28;20237;-71
2022/12/15 13:03:45;;;;;;;35.40;13.37;;;;;;;-0.04;100.00;95105.91;5057383;28;20208;-71
2022/12/15 13:06:38;;;;;;;30.27;12.07;;;;;;;0.09;100.00;95099.47;5058171;28;20205;-71
2022/12/15 13:09:22;;;;;;;35.30;12.90;;;;;;;0.00;100.00;95093.34;5058397;28;20209;-70
2022/12/15 13:12:00;;;;;;;46.33;14.90;;;;;;;0.10;100.00;95101.91;5057840;28;20208;-71
2022/12/15 13:14:54;;;;;;;43.03;14.57;;;;;;;0.19;100.00;95093.28;5057467;28;20264;-71
2022/12/15 13:17:30;;;;;;;39.30;13.87;;;;;;;0.18;100.00;95101.19;5043875;28;20224;-71
2022/12/15 13:20:28;;;;;;;50.47;15.80;;;;;;;0.20;100.00;95094.88;5057906;28;20220;-71
2022/12/15 13:22:56;;;;;;;34.63;14.07;;;;;;;0.09;100.00;95089.91;5058028;28;20223;-71
2022/12/15 13:25:39;;;;;;;51.53;14.60;;;;;;;0.23;100.00;95097.22;5055493;28;20210;-70
2022/12/15 13:28:29;;;;;;;48.50;16.47;;;;;;;0.22;100.00;95100.75;5058134;28;20602;-71
2022/12/15 13:31:41;;;;;;;37.13;13.17;;;;;;;0.28;100.00;95107.13;5058007;28;20207;-71
2022/12/15 13:34:21;;;;;;;41.10;13.47;;;;;;;0.30;100.00;95107.81;4994138;28;20212;-71
2022/12/15 13:36:53;;;;;;;41.23;14.57;;;;;;;0.30;100.00;95098.25;5047778;28;20216;-71
2022/12/15 13:39:52;;;;;;;51.90;15.03;;;;;;;0.43;100.00;95098.72;5058445;28;20215;-71
2022/12/15 13:42:30;;;;;;;41.60;14.97;;;;;;;0.01;100.00;95092.41;5057062;28;20209;-70
2022/12/15 13:45:14;;;;;;;43.03;14.17;;;;;;;0.20;100.00;95087.13;5056843;28;20205;-71
2022/12/15 13:47:41;;;;;;;42.27;13.50;;;;;;;0.03;100.00;95084.47;5056798;28;20220;-70
2022/12/15 13:50:14;;;;;;;46.07;14.50;;;;;;;-0.01;100.00;95078.75;5057209;28;20215;-71
2022/12/15 13:52:46;;;;;;;39.60;13.47;;;;;;;0.05;100.00;95077.38;5056753;28;20200;-70